createdAt,value
2022-11-27T00:00:07.176Z,15.60
2022-11-27T00:02:08.583Z,15.85
2022-11-27T00:04:11.218Z,14.35
2022-11-27T00:06:14.111Z,13.80
2022-11-27T00:08:15.497Z,13.25
2022-11-27T00:10:16.831Z,14.43
2022-11-27T00:12:18.159Z,14.80
2022-11-27T00:14:19.491Z,14.40
2022-11-27T00:16:22.575Z,11.93
2022-11-27T00:18:23.927Z,12.70
2022-11-27T00:20:29.592Z,11.68
2022-11-27T00:22:31.201Z,11.60
2022-11-27T00:24:32.496Z,11.52
2022-11-27T00:26:37.752Z,11.73
2022-11-27T00:28:39.580Z,11.05
2022-11-27T00:30:40.922Z,11.30
2022-11-27T00:32:42.492Z,11.75
2022-11-27T00:34:43.823Z,12.15
2022-11-27T00:36:48.149Z,11.23
2022-11-27T00:38:50.462Z,10.85
2022-11-27T00:40:51.795Z,11.90
2022-11-27T00:42:53.098Z,11.48
2022-11-27T00:44:54.511Z,11.50
2022-11-27T00:46:55.898Z,11.73
2022-11-27T00:48:57.754Z,10.95
2022-11-27T00:51:09.464Z,11.48
2022-11-27T00:53:10.772Z,11.45
2022-11-27T00:55:12.684Z,11.93
2022-11-27T00:57:13.969Z,12.50
2022-11-27T00:59:15.278Z,12.38
2022-11-27T01:01:17.950Z,11.52
2022-11-27T01:03:19.339Z,12.75
2022-11-27T01:05:20.942Z,11.70
2022-11-27T01:07:22.578Z,12.25
2022-11-27T01:09:23.940Z,11.98
2022-11-27T01:11:26.682Z,11.65
2022-11-27T01:13:29.823Z,11.63
2022-11-27T01:15:31.202Z,10.95
2022-11-27T01:17:32.477Z,11.82
2022-11-27T01:19:33.790Z,11.75
2022-11-27T01:21:35.546Z,11.73
2022-11-27T01:23:36.888Z,11.02
2022-11-27T01:25:38.211Z,10.48
2022-11-27T01:27:39.548Z,11.25
2022-11-27T01:29:40.887Z,10.88
2022-11-27T01:31:42.297Z,10.77
2022-11-27T01:33:44.237Z,11.25
2022-11-27T01:35:55.222Z,10.85
2022-11-27T01:37:56.544Z,10.45
2022-11-27T01:39:57.844Z,10.77
2022-11-27T01:41:59.160Z,10.57
2022-11-27T01:44:23.207Z,9.93
2022-11-27T01:46:27.174Z,10.18
2022-11-27T01:48:28.613Z,10.35
2022-11-27T01:50:36.897Z,10.07
2022-11-27T01:52:41.011Z,10.90
2022-11-27T01:54:45.589Z,10.52
2022-11-27T01:56:49.077Z,10.27
2022-11-27T01:58:51.001Z,10.60
2022-11-27T02:00:52.364Z,10.57
2022-11-27T02:02:53.787Z,10.82
2022-11-27T02:04:55.216Z,10.18
2022-11-27T02:06:58.192Z,10.32
2022-11-27T02:08:59.528Z,10.25
2022-11-27T02:11:04.320Z,10.23
2022-11-27T02:13:18.889Z,9.45
2022-11-27T02:15:23.702Z,9.30
2022-11-27T02:17:32.708Z,9.48
2022-11-27T02:19:44.815Z,8.82
2022-11-27T02:21:59.157Z,9.27
2022-11-27T02:24:03.338Z,8.68
2022-11-27T02:26:18.004Z,8.45
2022-11-27T02:28:25.368Z,8.77
2022-11-27T02:30:27.896Z,9.30
2022-11-27T02:32:35.940Z,8.27
2022-11-27T02:34:49.037Z,8.13
2022-11-27T02:36:53.366Z,7.88
2022-11-27T02:38:59.364Z,8.48
2022-11-27T02:41:05.455Z,8.60
2022-11-27T02:43:11.788Z,8.73
2022-11-27T02:45:14.623Z,9.07
2022-11-27T02:47:16.147Z,8.95
2022-11-27T02:49:19.191Z,9.02
2022-11-27T02:51:24.246Z,8.30
2022-11-27T02:53:29.421Z,8.80
2022-11-27T02:55:32.672Z,8.18
2022-11-27T02:57:35.076Z,8.50
2022-11-27T02:59:37.063Z,9.00
2022-11-27T03:01:41.153Z,8.65
2022-11-27T03:03:45.823Z,9.50
2022-11-27T03:05:48.375Z,9.65
2022-11-27T03:08:13.630Z,8.85
2022-11-27T03:10:26.993Z,9.38
2022-11-27T03:12:28.351Z,9.38
2022-11-27T03:14:29.659Z,9.20
2022-11-27T03:16:39.704Z,9.43
2022-11-27T03:18:47.755Z,10.33
2022-11-27T03:20:50.897Z,10.02
2022-11-27T03:22:55.453Z,10.15
2022-11-27T03:24:56.791Z,9.77
2022-11-27T03:26:58.570Z,10.23
2022-11-27T03:29:00.930Z,10.40
2022-11-27T03:31:02.391Z,10.25
2022-11-27T03:33:04.098Z,10.20
2022-11-27T03:35:08.157Z,9.88
2022-11-27T03:37:09.557Z,8.73
2022-11-27T03:39:10.922Z,9.57
2022-11-27T03:41:12.229Z,10.07
2022-11-27T03:43:17.441Z,9.68
2022-11-27T03:45:32.101Z,9.27
2022-11-27T03:47:59.900Z,10.18
2022-11-27T03:50:10.320Z,9.95
2022-11-27T03:52:25.305Z,9.70
2022-11-27T03:54:32.731Z,9.80
2022-11-27T03:56:37.958Z,10.07
2022-11-27T03:58:47.038Z,9.60
2022-11-27T04:00:49.741Z,9.52
2022-11-27T04:02:52.334Z,10.05
2022-11-27T04:04:53.609Z,9.93
2022-11-27T04:06:54.976Z,9.40
2022-11-27T04:08:56.510Z,10.23
2022-11-27T04:10:57.825Z,9.90
2022-11-27T04:12:59.196Z,10.32
2022-11-27T04:15:00.581Z,9.98
2022-11-27T04:17:01.933Z,9.80
2022-11-27T04:19:03.216Z,9.90
2022-11-27T04:21:04.662Z,10.15
2022-11-27T04:23:05.975Z,10.77
2022-11-27T04:25:07.702Z,10.55
2022-11-27T04:27:09.007Z,9.75
2022-11-27T04:29:10.385Z,10.00
2022-11-27T04:31:11.792Z,9.93
2022-11-27T04:33:13.180Z,9.43
2022-11-27T04:35:14.453Z,9.32
2022-11-27T04:37:15.760Z,10.10
2022-11-27T04:39:17.151Z,9.88
2022-11-27T04:41:18.566Z,8.77
2022-11-27T04:43:20.189Z,9.82
2022-11-27T04:45:21.477Z,10.15
2022-11-27T04:47:22.986Z,8.98
2022-11-27T04:49:24.341Z,9.88
2022-11-27T04:51:25.678Z,9.18
2022-11-27T04:53:27.009Z,9.32
2022-11-27T04:55:28.386Z,9.40
2022-11-27T04:57:29.762Z,9.60
2022-11-27T04:59:31.194Z,9.10
2022-11-27T05:01:32.707Z,9.35
2022-11-27T05:03:36.215Z,9.70
2022-11-27T05:05:37.575Z,9.30
2022-11-27T05:07:39.184Z,9.50
2022-11-27T05:09:40.538Z,9.23
2022-11-27T05:11:41.854Z,9.50
2022-11-27T05:13:43.403Z,9.68
2022-11-27T05:15:44.768Z,9.45
2022-11-27T05:17:46.253Z,10.02
2022-11-27T05:19:47.607Z,9.23
2022-11-27T05:21:49.662Z,9.50
2022-11-27T05:23:51.115Z,9.50
2022-11-27T05:25:52.908Z,9.63
2022-11-27T05:27:54.264Z,9.27
2022-11-27T05:29:55.652Z,9.52
2022-11-27T05:31:57.040Z,9.45
2022-11-27T05:33:58.446Z,8.85
2022-11-27T05:35:59.743Z,9.45
2022-11-27T05:38:01.037Z,9.43
2022-11-27T05:40:02.352Z,8.95
2022-11-27T05:42:03.829Z,9.48
2022-11-27T05:44:05.463Z,8.35
2022-11-27T05:46:07.191Z,8.98
2022-11-27T05:48:08.497Z,9.10
2022-11-27T05:50:09.852Z,8.88
2022-11-27T05:52:11.200Z,8.65
2022-11-27T05:54:12.520Z,9.20
2022-11-27T05:56:15.359Z,9.10
2022-11-27T05:58:16.819Z,9.15
2022-11-27T06:00:18.427Z,8.50
2022-11-27T06:02:22.711Z,8.55
2022-11-27T06:04:27.797Z,9.80
2022-11-27T06:06:29.090Z,9.13
2022-11-27T06:08:30.374Z,9.57
2022-11-27T06:10:31.755Z,9.73
2022-11-27T06:12:33.053Z,10.00
2022-11-27T06:14:35.109Z,10.93
2022-11-27T06:16:36.796Z,10.15
2022-11-27T06:18:38.177Z,10.07
2022-11-27T06:20:43.753Z,10.40
2022-11-27T06:22:46.039Z,9.07
2022-11-27T06:24:47.367Z,10.82
2022-11-27T06:26:48.666Z,10.00
2022-11-27T06:28:50.460Z,10.57
2022-11-27T06:30:51.797Z,10.68
2022-11-27T06:32:53.135Z,11.07
2022-11-27T06:34:54.492Z,10.55
2022-11-27T06:36:55.856Z,10.95
2022-11-27T06:38:57.201Z,10.38
2022-11-27T06:41:02.321Z,10.80
2022-11-27T06:43:03.610Z,10.90
2022-11-27T06:45:05.279Z,10.73
2022-11-27T06:47:06.796Z,11.18
2022-11-27T06:49:08.909Z,11.13
2022-11-27T06:51:11.575Z,9.80
2022-11-27T06:53:12.976Z,10.13
2022-11-27T06:55:14.285Z,10.27
2022-11-27T06:57:15.888Z,10.38
2022-11-27T06:59:17.857Z,10.75
2022-11-27T07:01:19.659Z,10.18
2022-11-27T07:03:21.367Z,10.68
2022-11-27T07:05:23.480Z,11.88
2022-11-27T07:07:24.779Z,11.30
2022-11-27T07:09:26.211Z,11.50
2022-11-27T07:11:29.621Z,10.68
2022-11-27T07:13:30.962Z,10.98
2022-11-27T07:15:32.590Z,11.13
2022-11-27T07:17:33.951Z,10.57
2022-11-27T07:19:35.372Z,10.35
2022-11-27T07:21:38.075Z,10.80
2022-11-27T07:23:39.583Z,11.45
2022-11-27T07:25:40.881Z,10.68
2022-11-27T07:27:44.381Z,10.82
2022-11-27T07:29:45.746Z,10.82
2022-11-27T07:31:47.229Z,10.52
2022-11-27T07:33:49.046Z,10.68
2022-11-27T07:35:50.805Z,10.63
2022-11-27T07:37:52.181Z,10.68
2022-11-27T07:40:06.519Z,11.32
2022-11-27T07:42:37.413Z,9.70
2022-11-27T07:44:29.203Z,10.27
2022-11-27T07:46:30.683Z,10.73
2022-11-27T07:48:32.181Z,12.55
2022-11-27T07:50:33.605Z,10.85
2022-11-27T07:52:41.919Z,11.63
2022-11-27T07:54:43.687Z,10.73
2022-11-27T07:56:44.972Z,11.55
2022-11-27T07:58:46.403Z,10.90
2022-11-27T08:00:48.497Z,10.98
2022-11-27T08:02:49.933Z,10.65
2022-11-27T08:04:51.290Z,10.82
2022-11-27T08:06:52.819Z,10.45
2022-11-27T08:08:55.988Z,10.25
2022-11-27T08:10:57.395Z,10.80
2022-11-27T08:12:59.134Z,10.48
2022-11-27T08:15:00.478Z,10.75
2022-11-27T08:17:01.873Z,11.20
2022-11-27T08:19:03.234Z,10.13
2022-11-27T08:21:04.606Z,10.25
2022-11-27T08:23:05.921Z,10.45
2022-11-27T08:25:07.566Z,10.80
2022-11-27T08:27:10.340Z,10.43
2022-11-27T08:29:12.252Z,10.60
2022-11-27T08:31:14.490Z,10.35
2022-11-27T08:33:15.818Z,9.65
2022-11-27T08:35:17.475Z,9.93
2022-11-27T08:37:18.917Z,8.98
2022-11-27T08:39:20.255Z,10.52
2022-11-27T08:41:21.861Z,9.43
2022-11-27T08:43:23.804Z,9.68
2022-11-27T08:45:25.200Z,9.40
2022-11-27T08:47:26.535Z,9.30
2022-11-27T08:49:27.784Z,10.20
2022-11-27T08:51:29.363Z,9.27
2022-11-27T08:53:31.931Z,10.23
2022-11-27T08:55:33.235Z,10.05
2022-11-27T08:57:34.617Z,9.75
2022-11-27T08:59:35.972Z,9.30
2022-11-27T09:01:37.367Z,9.82
2022-11-27T09:03:38.787Z,9.02
2022-11-27T09:05:44.572Z,9.32
2022-11-27T09:07:45.936Z,10.02
2022-11-27T09:09:47.278Z,9.48
2022-11-27T09:11:48.572Z,10.15
2022-11-27T09:13:49.945Z,9.73
2022-11-27T09:15:51.254Z,9.52
2022-11-27T09:17:52.560Z,7.82
2022-11-27T09:19:53.870Z,8.30
2022-11-27T09:21:55.210Z,7.55
2022-11-27T09:24:00.454Z,6.75
2022-11-27T09:26:02.939Z,5.90
2022-11-27T09:28:04.330Z,6.05
2022-11-27T09:30:06.948Z,6.78
2022-11-27T09:32:08.400Z,8.27
2022-11-27T09:34:09.843Z,8.65
2022-11-27T09:36:12.636Z,7.72
2022-11-27T09:38:14.108Z,7.57
2022-11-27T09:40:16.942Z,8.00
2022-11-27T09:42:37.836Z,7.63
2022-11-27T09:45:08.479Z,8.45
2022-11-27T09:47:16.929Z,8.57
2022-11-27T09:49:22.603Z,8.32
2022-11-27T09:51:27.513Z,6.22
2022-11-27T09:53:31.487Z,8.25
2022-11-27T09:55:37.761Z,8.27
2022-11-27T09:57:41.791Z,8.20
2022-11-27T09:59:44.852Z,7.88
2022-11-27T10:01:50.819Z,5.88
2022-11-27T10:03:52.840Z,7.60
2022-11-27T10:06:03.282Z,7.63
2022-11-27T10:08:20.988Z,5.57
2022-11-27T10:10:25.102Z,8.02
2022-11-27T10:12:32.536Z,5.10
2022-11-27T10:14:40.226Z,6.65
2022-11-27T10:16:50.361Z,5.78
2022-11-27T10:18:53.949Z,7.38
2022-11-27T10:21:01.092Z,8.00
2022-11-27T10:23:02.350Z,7.38
2022-11-27T10:25:21.168Z,5.28
2022-11-27T10:27:40.808Z,6.80
2022-11-27T10:29:47.176Z,7.68
2022-11-27T10:31:52.253Z,7.10
2022-11-27T10:33:55.832Z,6.78
2022-11-27T10:35:57.674Z,7.60
2022-11-27T10:38:11.047Z,7.57
2022-11-27T10:40:12.439Z,7.13
2022-11-27T10:42:25.948Z,8.05
2022-11-27T10:44:30.045Z,8.05
2022-11-27T10:46:35.963Z,8.07
2022-11-27T10:48:37.298Z,6.57
2022-11-27T10:50:38.799Z,8.07
2022-11-27T10:52:50.960Z,7.65
2022-11-27T10:54:56.370Z,7.90
2022-11-27T10:57:09.479Z,6.82
2022-11-27T10:59:15.663Z,5.95
2022-11-27T11:01:18.862Z,7.40
2022-11-27T11:03:20.229Z,7.25
2022-11-27T11:07:54.799Z,8.00
2022-11-27T11:09:56.397Z,10.55
2022-11-27T11:12:17.027Z,6.53
2022-11-27T11:14:27.112Z,7.10
2022-11-27T11:16:35.158Z,5.45
2022-11-27T11:18:43.307Z,6.43
2022-11-27T11:20:47.730Z,6.47
2022-11-27T11:22:49.485Z,5.30
2022-11-27T11:24:55.132Z,6.13
2022-11-27T11:27:01.003Z,7.40
2022-11-27T11:29:05.016Z,5.82
2022-11-27T11:31:09.070Z,7.70
2022-11-27T11:33:12.300Z,6.10
2022-11-27T11:35:30.629Z,7.68
2022-11-27T11:37:33.875Z,7.07
2022-11-27T11:39:39.952Z,6.72
2022-11-27T11:41:45.942Z,6.20
2022-11-27T11:43:55.144Z,5.68
2022-11-27T11:46:03.948Z,7.07
2022-11-27T11:48:22.692Z,7.97
2022-11-27T11:50:32.699Z,8.32
2022-11-27T11:52:48.669Z,6.63
2022-11-27T11:54:58.217Z,7.45
2022-11-27T11:57:05.052Z,7.53
2022-11-27T11:59:24.840Z,7.80
2022-11-27T12:01:44.790Z,6.97
2022-11-27T12:04:04.858Z,7.35
2022-11-27T12:06:11.842Z,7.03
2022-11-27T12:08:31.862Z,8.07
2022-11-27T12:10:38.389Z,7.47
2022-11-27T12:12:58.298Z,7.50
2022-11-27T12:15:17.853Z,7.40
2022-11-27T12:17:37.972Z,8.18
2022-11-27T12:19:41.906Z,7.83
2022-11-27T12:22:02.230Z,7.30
2022-11-27T12:24:03.639Z,7.35
2022-11-27T12:26:05.168Z,7.80
2022-11-27T12:28:18.824Z,7.30
2022-11-27T12:30:22.305Z,7.45
2022-11-27T12:32:42.516Z,7.30
2022-11-27T12:35:05.216Z,7.38
2022-11-27T12:37:22.759Z,7.55
2022-11-27T12:39:50.676Z,7.22
2022-11-27T12:41:54.677Z,7.07
2022-11-27T12:44:00.159Z,7.05
2022-11-27T12:46:01.625Z,7.15
2022-11-27T12:48:07.184Z,7.82
2022-11-27T12:50:08.739Z,7.65
2022-11-27T12:52:20.591Z,6.93
2022-11-27T12:54:32.846Z,8.48
2022-11-27T12:56:34.164Z,8.18
2022-11-27T12:58:39.049Z,8.80
2022-11-27T13:00:41.068Z,7.90
2022-11-27T13:02:46.648Z,7.93
2022-11-27T13:04:51.659Z,7.70
2022-11-27T13:07:03.497Z,8.25
2022-11-27T13:09:07.865Z,8.50
2022-11-27T13:11:10.541Z,7.75
2022-11-27T13:13:15.748Z,7.70
2022-11-27T13:15:35.663Z,8.32
2022-11-27T13:17:42.375Z,8.32
2022-11-27T13:19:50.743Z,7.65
2022-11-27T13:21:53.385Z,7.35
2022-11-27T13:23:55.145Z,8.20
2022-11-27T13:25:57.020Z,9.18
2022-11-27T13:27:58.748Z,7.72
2022-11-27T13:30:00.091Z,8.80
2022-11-27T13:32:04.010Z,8.18
2022-11-27T13:34:10.087Z,8.23
2022-11-27T13:36:19.314Z,9.10
2022-11-27T13:38:23.254Z,8.80
2022-11-27T13:40:31.830Z,8.85
2022-11-27T13:42:36.959Z,8.70
2022-11-27T13:44:41.967Z,8.68
2022-11-27T13:46:48.569Z,9.45
2022-11-27T13:48:55.312Z,9.18
2022-11-27T13:50:56.838Z,8.43
2022-11-27T13:53:06.152Z,9.18
2022-11-27T13:55:09.828Z,9.18
2022-11-27T13:57:12.449Z,8.95
2022-11-27T13:59:21.036Z,8.95
2022-11-27T14:01:23.342Z,8.45
2022-11-27T14:03:26.859Z,8.55
2022-11-27T14:05:36.686Z,8.90
2022-11-27T14:07:42.911Z,9.20
2022-11-27T14:09:55.581Z,9.13
2022-11-27T14:11:56.920Z,8.13
2022-11-27T14:13:58.714Z,8.15
2022-11-27T14:16:02.262Z,9.25
2022-11-27T14:18:09.959Z,8.55
2022-11-27T14:20:17.161Z,8.80
2022-11-27T14:25:17.613Z,8.90
2022-11-27T14:27:21.118Z,9.35
2022-11-27T14:29:23.649Z,9.07
2022-11-27T14:31:31.754Z,8.77
2022-11-27T14:33:47.322Z,8.57
2022-11-27T14:35:56.246Z,8.63
2022-11-27T14:38:15.190Z,9.25
2022-11-27T14:40:27.021Z,8.68
2022-11-27T14:42:30.658Z,8.52
2022-11-27T14:44:34.084Z,9.25
2022-11-27T14:46:36.618Z,7.82
2022-11-27T14:48:45.510Z,8.57
2022-11-27T14:50:47.911Z,9.02
2022-11-27T14:52:51.942Z,8.52
2022-11-27T14:54:54.955Z,9.23
2022-11-27T14:56:57.178Z,8.93
2022-11-27T14:58:59.584Z,8.57
2022-11-27T15:01:03.356Z,8.68
2022-11-27T15:03:09.064Z,8.73
2022-11-27T15:05:18.240Z,9.40
2022-11-27T15:07:20.198Z,8.07
2022-11-27T15:09:33.314Z,8.70
2022-11-27T15:11:54.671Z,8.82
2022-11-27T15:13:57.758Z,9.07
2022-11-27T15:15:59.174Z,8.75
2022-11-27T15:18:03.485Z,8.98
2022-11-27T15:20:14.217Z,8.73
2022-11-27T15:22:16.570Z,9.02
2022-11-27T15:24:31.677Z,9.70
2022-11-27T15:26:39.722Z,9.30
2022-11-27T15:28:43.323Z,9.90
2022-11-27T15:30:45.506Z,9.45
2022-11-27T15:32:55.312Z,9.02
2022-11-27T15:34:56.742Z,9.75
2022-11-27T15:36:59.798Z,8.82
2022-11-27T15:39:05.585Z,8.95
2022-11-27T15:41:18.536Z,9.70
2022-11-27T15:43:19.834Z,9.20
2022-11-27T15:45:22.160Z,9.38
2022-11-27T15:47:35.103Z,9.27
2022-11-27T15:49:36.437Z,9.82
2022-11-27T15:51:37.719Z,9.65
2022-11-27T15:53:39.067Z,9.52
2022-11-27T15:55:40.388Z,9.80
2022-11-27T15:57:41.930Z,10.13
2022-11-27T15:59:43.285Z,9.60
2022-11-27T16:01:44.767Z,9.98
2022-11-27T16:03:46.324Z,8.98
2022-11-27T16:05:47.610Z,9.35
2022-11-27T16:07:53.570Z,9.20
2022-11-27T16:09:56.413Z,10.35
2022-11-27T16:11:57.735Z,9.10
2022-11-27T16:13:59.278Z,8.95
2022-11-27T16:16:01.405Z,9.27
2022-11-27T16:18:02.850Z,9.55
2022-11-27T16:20:04.446Z,9.13
2022-11-27T16:22:05.776Z,9.38
2022-11-27T16:24:09.281Z,9.93
2022-11-27T16:26:14.006Z,9.75
2022-11-27T16:28:15.446Z,9.90
2022-11-27T16:30:19.889Z,10.23
2022-11-27T16:32:21.174Z,9.85
2022-11-27T16:34:22.476Z,9.93
2022-11-27T16:36:23.998Z,9.32
2022-11-27T16:38:25.851Z,9.13
2022-11-27T16:40:27.423Z,9.15
2022-11-27T16:42:28.925Z,9.20
2022-11-27T16:44:30.231Z,9.27
2022-11-27T16:46:31.651Z,10.20
2022-11-27T16:48:36.557Z,9.45
2022-11-27T16:50:37.911Z,9.70
2022-11-27T16:52:39.284Z,9.52
2022-11-27T16:54:40.912Z,9.75
2022-11-27T16:56:42.629Z,9.98
2022-11-27T16:58:44.829Z,9.75
2022-11-27T17:00:46.210Z,8.75
2022-11-27T17:02:47.832Z,9.38
2022-11-27T17:04:49.136Z,9.77
2022-11-27T17:06:50.619Z,9.35
2022-11-27T17:08:53.374Z,10.02
2022-11-27T17:10:54.727Z,9.52
2022-11-27T17:12:56.063Z,10.15
2022-11-27T17:14:57.399Z,9.60
2022-11-27T17:16:58.837Z,9.30
2022-11-27T17:19:00.409Z,9.63
2022-11-27T17:21:02.691Z,9.45
2022-11-27T17:23:03.982Z,9.93
2022-11-27T17:25:05.442Z,7.97
2022-11-27T17:27:06.746Z,8.90
2022-11-27T17:29:08.714Z,9.52
2022-11-27T17:31:14.561Z,9.05
2022-11-27T17:33:15.927Z,9.43
2022-11-27T17:35:17.260Z,9.70
2022-11-27T17:37:19.809Z,9.40
2022-11-27T17:39:21.432Z,9.57
2022-11-27T17:41:23.367Z,9.98
2022-11-27T17:43:25.674Z,9.82
2022-11-27T17:45:27.067Z,10.00
2022-11-27T17:47:28.419Z,9.10
2022-11-27T17:49:29.678Z,8.05
2022-11-27T17:51:32.624Z,9.57
2022-11-27T17:53:34.259Z,9.95
2022-11-27T17:55:35.585Z,9.38
2022-11-27T17:57:36.872Z,9.95
2022-11-27T17:59:38.387Z,9.57
2022-11-27T18:01:39.828Z,8.43
2022-11-27T18:03:42.468Z,9.43
2022-11-27T18:05:44.043Z,8.35
2022-11-27T18:07:45.542Z,8.52
2022-11-27T18:09:48.094Z,8.90
2022-11-27T18:11:49.410Z,9.25
2022-11-27T18:13:50.987Z,9.40
2022-11-27T18:15:52.389Z,9.27
2022-11-27T18:17:53.860Z,8.85
2022-11-27T18:19:57.159Z,9.40
2022-11-27T18:22:00.048Z,9.30
2022-11-27T18:26:39.325Z,8.80
2022-11-27T18:28:44.669Z,9.43
2022-11-27T18:30:46.032Z,9.23
2022-11-27T18:32:47.367Z,8.68
2022-11-27T18:34:51.737Z,8.77
2022-11-27T18:36:57.142Z,9.35
2022-11-27T18:38:59.062Z,9.15
2022-11-27T18:41:07.844Z,8.90
2022-11-27T18:43:11.041Z,10.23
2022-11-27T18:45:31.189Z,8.70
2022-11-27T18:49:34.882Z,10.43
2022-11-27T18:51:36.314Z,9.98
2022-11-27T18:53:37.790Z,9.52
2022-11-27T18:55:39.246Z,9.40
2022-11-27T18:57:40.624Z,9.98
2022-11-27T18:59:45.331Z,9.25
2022-11-27T19:01:47.062Z,8.80
2022-11-27T19:03:48.560Z,9.48
2022-11-27T19:05:49.957Z,8.95
2022-11-27T19:07:51.444Z,9.15
2022-11-27T19:09:52.988Z,9.23
2022-11-27T19:11:54.397Z,9.25
2022-11-27T19:13:56.360Z,9.15
2022-11-27T19:15:57.823Z,8.88
2022-11-27T19:17:59.200Z,8.77
2022-11-27T19:20:00.561Z,9.98
2022-11-27T19:22:01.951Z,8.45
2022-11-27T19:24:03.629Z,10.05
2022-11-27T19:26:19.875Z,10.05
2022-11-27T19:28:24.333Z,9.55
2022-11-27T19:30:28.178Z,9.23
2022-11-27T19:32:31.723Z,9.18
2022-11-27T19:34:33.099Z,9.05
2022-11-27T19:36:35.114Z,9.68
2022-11-27T19:38:37.069Z,9.48
2022-11-27T19:40:39.897Z,9.40
2022-11-27T19:42:41.178Z,9.10
2022-11-27T19:44:42.693Z,9.70
2022-11-27T19:46:46.359Z,8.70
2022-11-27T19:48:48.178Z,8.75
2022-11-27T19:50:50.430Z,9.35
2022-11-27T19:52:51.797Z,8.90
2022-11-27T19:54:53.165Z,10.07
2022-11-27T19:56:54.506Z,9.55
2022-11-27T19:58:56.466Z,9.13
2022-11-27T20:01:11.660Z,9.00
2022-11-27T20:03:13.065Z,9.20
2022-11-27T20:05:14.645Z,9.40
2022-11-27T20:07:16.160Z,8.48
2022-11-27T20:09:17.605Z,8.50
2022-11-27T20:11:21.782Z,8.90
2022-11-27T20:13:23.157Z,9.65
2022-11-27T20:15:24.519Z,9.45
2022-11-27T20:17:28.222Z,8.35
2022-11-27T20:19:29.617Z,9.05
2022-11-27T20:21:31.163Z,8.88
2022-11-27T20:23:33.125Z,9.98
2022-11-27T20:25:34.475Z,9.48
2022-11-27T20:27:35.936Z,8.68
2022-11-27T20:29:37.335Z,9.55
2022-11-27T20:31:40.208Z,9.98
2022-11-27T20:33:41.810Z,9.23
2022-11-27T20:35:43.173Z,9.57
2022-11-27T20:37:44.599Z,9.38
2022-11-27T20:39:45.973Z,9.98
2022-11-27T20:41:48.873Z,8.70
2022-11-27T20:43:53.798Z,9.07
2022-11-27T20:45:55.233Z,9.90
2022-11-27T20:47:56.627Z,10.02
2022-11-27T20:49:57.998Z,9.70
2022-11-27T20:52:03.385Z,9.57
2022-11-27T20:54:04.812Z,9.77
2022-11-27T20:56:07.443Z,9.88
2022-11-27T20:58:08.870Z,9.60
2022-11-27T21:00:10.655Z,8.77
2022-11-27T21:02:12.546Z,9.45
2022-11-27T21:04:17.507Z,9.35
2022-11-27T21:06:19.881Z,9.95
2022-11-27T21:08:21.646Z,9.38
2022-11-27T21:10:24.764Z,9.05
2022-11-27T21:12:26.164Z,9.55
2022-11-27T21:14:27.799Z,9.25
2022-11-27T21:16:30.707Z,9.80
2022-11-27T21:18:32.226Z,9.05
2022-11-27T21:20:33.725Z,9.95
2022-11-27T21:22:35.145Z,10.27
2022-11-27T21:24:36.576Z,9.27
2022-11-27T21:26:40.041Z,9.77
2022-11-27T21:28:42.793Z,9.65
2022-11-27T21:30:44.258Z,9.90
2022-11-27T21:32:45.992Z,9.70
2022-11-27T21:34:47.535Z,9.57
2022-11-27T21:36:48.949Z,9.90
2022-11-27T21:38:50.306Z,10.07
2022-11-27T21:40:51.812Z,9.68
2022-11-27T21:42:53.158Z,9.27
2022-11-27T21:44:54.538Z,9.43
2022-11-27T21:46:56.141Z,9.75
2022-11-27T21:48:58.648Z,9.70
2022-11-27T21:51:01.113Z,9.27
2022-11-27T21:53:02.546Z,9.20
2022-11-27T21:55:06.651Z,10.07
2022-11-27T21:57:12.076Z,9.63
2022-11-27T21:59:13.992Z,9.93
2022-11-27T22:01:16.404Z,9.82
2022-11-27T22:03:18.006Z,9.57
2022-11-27T22:05:19.423Z,9.57
2022-11-27T22:07:20.824Z,9.65
2022-11-27T22:09:22.385Z,9.43
2022-11-27T22:11:26.826Z,9.88
2022-11-27T22:13:29.991Z,10.32
2022-11-27T22:15:31.394Z,9.85
2022-11-27T22:17:33.253Z,9.90
2022-11-27T22:19:40.222Z,9.63
2022-11-27T22:21:41.943Z,9.68
2022-11-27T22:23:43.827Z,10.32
2022-11-27T22:25:45.148Z,9.93
2022-11-27T22:27:46.444Z,8.25
2022-11-27T22:29:47.816Z,10.02
2022-11-27T22:31:49.193Z,9.70
2022-11-27T22:33:50.937Z,10.00
2022-11-27T22:35:52.327Z,10.25
2022-11-27T22:37:53.864Z,9.65
2022-11-27T22:39:55.176Z,9.52
2022-11-27T22:41:56.454Z,10.23
2022-11-27T22:44:00.138Z,9.82
2022-11-27T22:46:12.371Z,10.60
2022-11-27T22:48:13.767Z,9.82
2022-11-27T22:50:15.113Z,11.05
2022-11-27T22:52:16.471Z,10.23
2022-11-27T22:54:17.953Z,10.13
2022-11-27T22:56:19.918Z,11.02
2022-11-27T22:58:21.707Z,10.30
2022-11-27T23:00:23.036Z,9.65
2022-11-27T23:02:24.511Z,10.35
2022-11-27T23:04:25.884Z,10.30
2022-11-27T23:06:27.584Z,9.98
2022-11-27T23:08:28.940Z,10.32
2022-11-27T23:10:30.316Z,10.48
2022-11-27T23:12:31.700Z,10.63
2022-11-27T23:14:33.101Z,10.35
2022-11-27T23:16:34.839Z,10.50
2022-11-27T23:18:38.378Z,9.45
2022-11-27T23:20:40.724Z,10.80
2022-11-27T23:22:42.112Z,10.38
2022-11-27T23:24:43.702Z,10.35
2022-11-27T23:26:45.925Z,11.02
2022-11-27T23:28:48.675Z,10.48
2022-11-27T23:31:08.663Z,10.80
2022-11-27T23:33:11.962Z,10.70
2022-11-27T23:35:13.343Z,9.77
2022-11-27T23:37:14.695Z,10.55
2022-11-27T23:39:16.183Z,9.45
2022-11-27T23:41:19.200Z,10.80
2022-11-27T23:43:20.599Z,10.80
2022-11-27T23:45:21.989Z,11.13
2022-11-27T23:47:23.385Z,10.77
2022-11-27T23:49:24.760Z,10.43
2022-11-27T23:51:28.145Z,10.90
2022-11-27T23:53:32.702Z,9.85
2022-11-27T23:55:34.761Z,9.95
2022-11-27T23:57:36.153Z,10.90
2022-11-27T23:59:37.601Z,10.60
